This is the latest recevied weather packets stored in our database for station/object IZ1BLA-10. If no packets are shown the sender has not sent any weather packets the latest 1 day(s).
| Time | Temp. | Humidity | Pressure | Rain* | Wind** | Luminosity | Snow |
|---|---|---|---|---|---|---|---|
| 1778104159 | 17.22° C | 62% | 1009.3 hPa | - | - | - | - |
| 1778102959 | 17.78° C | 59% | 1008.8 hPa | - | - | - | - |
| 1778101759 | 17.22° C | 61% | 1008.7 hPa | - | - | - | - |
| 1778098760 | 18.33° C | 57% | 1008.1 hPa | - | - | - | - |
| 1778096359 | 18.33° C | 56% | 1007 hPa | - | - | - | - |
| 1778095759 | 18.33° C | 56% | 1006.9 hPa | - | - | - | - |
| 1778092759 | 20° C | 53% | 1005.5 hPa | - | - | - | - |
| 1778090959 | 19.44° C | 55% | 1004.9 hPa | - | - | - | - |
| 1778089159 | 19.44° C | 54% | 1004.3 hPa | - | - | - | - |
| 1778088559 | 20° C | 54% | 1004.1 hPa | - | - | - | - |
| 1778087959 | 20° C | 53% | 1004 hPa | - | - | - | - |
| 1778087359 | 20° C | 52% | 1003.9 hPa | - | - | - | - |
| 1778084958 | 21.11° C | 49% | 1003.5 hPa | - | - | - | - |
| 1778082558 | 20.56° C | 51% | 1003.4 hPa | - | - | - | - |
| 1778080758 | 19.44° C | 56% | 1003.7 hPa | - | - | - | - |
| 1778075958 | 22.22° C | 41% | 1003.1 hPa | - | - | - | - |
| 1778074158 | 21.67° C | 47% | 1003.5 hPa | - | - | - | - |
| 1778072358 | 21.67° C | 42% | 1003.4 hPa | - | - | - | - |
| 1778069358 | 21.67° C | 44% | 1003.5 hPa | - | - | - | - |
| 1778068758 | 20.56° C | 48% | 1003.8 hPa | - | - | - | - |
| 1778068158 | 20° C | 50% | 1004 hPa | - | - | - | - |
| 1778066357 | 20° C | 51% | 1004.3 hPa | - | - | - | - |
| 1778065758 | 20° C | 51% | 1004.4 hPa | - | - | - | - |
| 1778065158 | 20° C | 51% | 1004.6 hPa | - | - | - | - |
| 1778064558 | 18.89° C | 53% | 1005 hPa | - | - | - | - |
* Rain since midnight (hover to see other rain measurements)
** Current wind speed in m/s (hover to see current wind gust speed)